createdAt,value
2017-10-19T00:01:00.092Z,100248.41
2017-10-19T00:03:27.642Z,100253.41
2017-10-19T00:05:55.096Z,100250.60
2017-10-19T00:08:22.580Z,100244.64
2017-10-19T00:10:50.026Z,100245.23
2017-10-19T00:13:17.487Z,100242.31
2017-10-19T00:15:44.931Z,100244.09
2017-10-19T00:18:12.486Z,100239.46
2017-10-19T00:20:40.064Z,100246.22
2017-10-19T00:23:07.553Z,100247.11
2017-10-19T00:25:35.002Z,100256.41
2017-10-19T00:28:02.484Z,100255.13
2017-10-19T00:30:29.935Z,100254.27
2017-10-19T00:32:57.392Z,100252.66
2017-10-19T00:35:24.873Z,100258.20
2017-10-19T00:37:52.314Z,100256.09
2017-10-19T00:40:19.774Z,100254.55
2017-10-19T00:42:47.237Z,100252.79
2017-10-19T00:45:14.726Z,100251.23
2017-10-19T00:47:42.190Z,100244.32
2017-10-19T00:50:09.745Z,100245.32
2017-10-19T00:52:37.210Z,100253.06
2017-10-19T00:55:05.103Z,100250.53
2017-10-19T00:57:32.602Z,100244.59
2017-10-19T01:00:00.070Z,100242.40
2017-10-19T01:02:27.556Z,100237.70
2017-10-19T01:04:55.042Z,100230.22
2017-10-19T01:07:22.530Z,100227.23
2017-10-19T01:09:50.055Z,100231.23
2017-10-19T01:12:17.565Z,100229.84
2017-10-19T01:14:45.033Z,100223.52
2017-10-19T01:17:12.513Z,100226.64
2017-10-19T01:19:40.036Z,100223.19
2017-10-19T01:22:07.534Z,100224.86
2017-10-19T01:24:35.010Z,100226.61
2017-10-19T01:27:02.518Z,100231.53
2017-10-19T01:29:29.985Z,100232.99
2017-10-19T01:31:57.484Z,100220.56
2017-10-19T01:34:24.974Z,100238.84
2017-10-19T01:36:52.470Z,100221.70
2017-10-19T01:39:19.934Z,100232.69
2017-10-19T01:41:47.428Z,100236.63
2017-10-19T01:44:14.900Z,100232.70
2017-10-19T01:46:42.390Z,100222.10
2017-10-19T01:49:09.853Z,100223.02
2017-10-19T01:51:37.337Z,100238.24
2017-10-19T01:54:04.797Z,100223.20
2017-10-19T01:56:32.271Z,100228.52
2017-10-19T01:58:59.766Z,100226.94
2017-10-19T02:01:27.255Z,100217.95
2017-10-19T02:03:54.713Z,100229.41
2017-10-19T02:06:22.223Z,100218.30
2017-10-19T02:08:49.693Z,100222.84
2017-10-19T02:11:17.185Z,100226.47
2017-10-19T02:13:44.659Z,100224.65
2017-10-19T02:16:12.119Z,100224.11
2017-10-19T02:18:39.602Z,100219.56
2017-10-19T02:21:07.177Z,100215.59
2017-10-19T02:23:34.663Z,100221.03
2017-10-19T02:26:02.115Z,100223.09
2017-10-19T02:28:29.627Z,100217.49
2017-10-19T02:30:57.088Z,100222.63
2017-10-19T02:33:24.657Z,100221.73
2017-10-19T02:35:52.145Z,100229.39
2017-10-19T02:38:19.629Z,100224.16
2017-10-19T02:40:47.099Z,100229.69
2017-10-19T02:43:14.576Z,100231.63
2017-10-19T02:45:42.134Z,100230.83
2017-10-19T02:48:09.625Z,100234.05
2017-10-19T02:50:37.089Z,100234.69
2017-10-19T02:53:04.585Z,100231.23
2017-10-19T02:55:32.078Z,100232.51
2017-10-19T02:57:59.637Z,100231.00
2017-10-19T03:00:27.179Z,100228.45
2017-10-19T03:02:54.673Z,100219.02
2017-10-19T03:05:22.146Z,100225.81
2017-10-19T03:07:49.654Z,100227.77
2017-10-19T03:10:17.144Z,100221.01
2017-10-19T03:12:44.629Z,100226.19
2017-10-19T03:15:12.101Z,100220.16
2017-10-19T03:17:39.589Z,100219.20
2017-10-19T03:20:07.063Z,100228.08
2017-10-19T03:22:34.548Z,100224.14
2017-10-19T03:25:02.018Z,100224.98
2017-10-19T03:27:29.512Z,100220.22
2017-10-19T03:29:57.093Z,100219.23
2017-10-19T03:32:24.609Z,100219.08
2017-10-19T03:34:52.069Z,100220.61
2017-10-19T03:37:19.534Z,100225.51
2017-10-19T03:39:47.014Z,100231.26
2017-10-19T03:42:14.467Z,100234.40
2017-10-19T03:44:41.939Z,100232.34
2017-10-19T03:47:09.395Z,100231.08
2017-10-19T03:49:36.920Z,100225.91
2017-10-19T03:52:04.482Z,100215.61
2017-10-19T03:54:31.986Z,100215.82
2017-10-19T03:56:59.461Z,100227.83
2017-10-19T03:59:26.939Z,100221.20
2017-10-19T04:01:54.433Z,100206.50
2017-10-19T04:04:21.907Z,100209.18
2017-10-19T04:06:49.381Z,100203.06
2017-10-19T04:09:16.859Z,100201.09
2017-10-19T04:11:44.335Z,100197.66
2017-10-19T04:14:11.808Z,100202.91
2017-10-19T04:16:39.269Z,100221.23
2017-10-19T04:19:06.821Z,100226.87
2017-10-19T04:21:34.378Z,100226.42
2017-10-19T04:24:01.859Z,100218.00
2017-10-19T04:26:29.399Z,100221.19
2017-10-19T04:28:56.890Z,100216.63
2017-10-19T04:31:24.372Z,100221.72
2017-10-19T04:33:51.839Z,100209.65
2017-10-19T04:36:19.349Z,100211.41
2017-10-19T04:38:46.838Z,100215.91
2017-10-19T04:41:14.361Z,100212.36
2017-10-19T04:43:41.840Z,100211.73
2017-10-19T04:46:09.300Z,100215.69
2017-10-19T04:48:36.793Z,100211.80
2017-10-19T04:51:04.252Z,100212.52
2017-10-19T04:53:31.766Z,100211.50
2017-10-19T04:55:59.295Z,100218.11
2017-10-19T04:58:26.807Z,100211.55
2017-10-19T05:00:54.260Z,100203.75
2017-10-19T05:03:21.732Z,100208.17
2017-10-19T05:05:49.218Z,100209.98
2017-10-19T05:08:16.787Z,100211.17
2017-10-19T05:10:44.326Z,100200.75
2017-10-19T05:13:11.776Z,100201.58
2017-10-19T05:15:39.261Z,100199.64
2017-10-19T05:18:06.803Z,100204.02
2017-10-19T05:20:34.283Z,100199.19
2017-10-19T05:23:01.756Z,100199.82
2017-10-19T05:25:30.129Z,100194.08
2017-10-19T05:27:57.585Z,100194.41
2017-10-19T05:30:25.065Z,100198.85
2017-10-19T05:32:52.534Z,100205.48
2017-10-19T05:35:20.026Z,100212.66
2017-10-19T05:37:47.494Z,100218.16
2017-10-19T05:40:14.979Z,100213.23
2017-10-19T05:42:42.485Z,100213.19
2017-10-19T05:45:09.991Z,100213.41
2017-10-19T05:47:37.459Z,100216.67
2017-10-19T05:50:04.954Z,100212.20
2017-10-19T05:52:32.418Z,100205.06
2017-10-19T05:54:59.981Z,100207.38
2017-10-19T05:57:27.534Z,100209.86
2017-10-19T05:59:55.105Z,100217.75
2017-10-19T06:02:22.560Z,100216.01
2017-10-19T06:04:50.047Z,100216.42
2017-10-19T06:07:17.566Z,100226.64
2017-10-19T06:09:45.057Z,100227.06
2017-10-19T06:12:12.524Z,100227.31
2017-10-19T06:14:40.039Z,100230.09
2017-10-19T06:17:07.533Z,100217.55
2017-10-19T06:19:35.058Z,100210.56
2017-10-19T06:22:02.640Z,100217.52
2017-10-19T06:24:30.114Z,100226.55
2017-10-19T06:26:57.624Z,100217.48
2017-10-19T06:29:25.100Z,100221.00
2017-10-19T06:31:52.652Z,100212.64
2017-10-19T06:34:20.126Z,100210.01
2017-10-19T06:36:47.608Z,100218.22
2017-10-19T06:39:15.059Z,100223.58
2017-10-19T06:41:42.566Z,100225.12
2017-10-19T06:44:10.037Z,100229.53
2017-10-19T06:46:37.529Z,100223.75
2017-10-19T06:49:05.001Z,100223.67
2017-10-19T06:51:32.496Z,100226.47
2017-10-19T06:53:59.962Z,100236.78
2017-10-19T06:56:27.454Z,100236.66
2017-10-19T06:58:54.914Z,100242.27
2017-10-19T07:01:22.424Z,100240.76
2017-10-19T07:03:49.889Z,100239.45
2017-10-19T07:06:17.373Z,100249.56
2017-10-19T07:08:44.893Z,100253.00
2017-10-19T07:11:12.388Z,100256.09
2017-10-19T07:13:39.840Z,100254.00
2017-10-19T07:16:07.340Z,100267.76
2017-10-19T07:18:34.858Z,100260.70
2017-10-19T07:21:02.345Z,100268.06
2017-10-19T07:23:29.852Z,100275.28
2017-10-19T07:25:57.340Z,100278.59
2017-10-19T07:28:24.804Z,100276.84
2017-10-19T07:30:52.330Z,100276.64
2017-10-19T07:33:19.783Z,100279.39
2017-10-19T07:35:47.268Z,100278.17
2017-10-19T07:38:14.792Z,100279.71
2017-10-19T07:40:42.335Z,100282.28
2017-10-19T07:43:09.901Z,100283.81
2017-10-19T07:45:37.474Z,100282.05
2017-10-19T07:48:04.965Z,100276.26
2017-10-19T07:50:32.485Z,100273.23
2017-10-19T07:52:59.981Z,100281.82
2017-10-19T07:55:27.450Z,100289.53
2017-10-19T07:57:55.082Z,100290.12
2017-10-19T08:00:22.555Z,100292.91
2017-10-19T08:02:50.041Z,100293.02
2017-10-19T08:05:17.534Z,100292.69
2017-10-19T08:07:45.105Z,100293.88
2017-10-19T08:10:12.574Z,100296.12
2017-10-19T08:12:40.092Z,100292.47
2017-10-19T08:15:07.566Z,100291.05
2017-10-19T08:17:35.113Z,100290.79
2017-10-19T08:20:02.581Z,100285.03
2017-10-19T08:22:30.125Z,100280.52
2017-10-19T08:24:57.589Z,100289.97
2017-10-19T08:27:25.082Z,100288.23
2017-10-19T08:29:52.581Z,100286.14
2017-10-19T08:32:20.055Z,100290.94
2017-10-19T08:34:47.612Z,100291.56
2017-10-19T08:37:15.106Z,100287.42
2017-10-19T08:39:42.599Z,100290.67
2017-10-19T08:42:10.194Z,100292.41
2017-10-19T08:44:37.743Z,100294.49
2017-10-19T08:47:05.230Z,100287.88
2017-10-19T08:49:32.687Z,100286.66
2017-10-19T08:52:00.237Z,100294.03
2017-10-19T08:54:27.699Z,100298.51
2017-10-19T08:56:55.237Z,100301.86
2017-10-19T08:59:22.706Z,100298.66
2017-10-19T09:01:50.197Z,100292.67
2017-10-19T09:04:17.651Z,100290.59
2017-10-19T09:06:45.166Z,100287.58
2017-10-19T09:09:12.721Z,100294.79
2017-10-19T09:11:40.234Z,100291.67
2017-10-19T09:14:07.691Z,100295.06
2017-10-19T09:16:35.157Z,100296.33
2017-10-19T09:19:02.763Z,100290.01
2017-10-19T09:21:30.287Z,100293.84
2017-10-19T09:23:57.806Z,100294.00
2017-10-19T09:26:25.282Z,100296.03
2017-10-19T09:28:52.769Z,100284.36
2017-10-19T09:31:20.250Z,100288.73
2017-10-19T09:33:47.745Z,100282.29
2017-10-19T09:36:15.257Z,100291.94
2017-10-19T09:38:42.849Z,100293.68
2017-10-19T09:41:10.333Z,100290.34
2017-10-19T09:43:37.866Z,100285.45
2017-10-19T09:46:05.341Z,100290.09
2017-10-19T09:48:32.850Z,100288.88
2017-10-19T09:51:00.312Z,100282.50
2017-10-19T09:53:27.867Z,100289.88
2017-10-19T09:55:55.337Z,100283.28
2017-10-19T09:58:22.874Z,100278.97
2017-10-19T10:00:50.441Z,100275.27
2017-10-19T10:03:17.920Z,100270.31
2017-10-19T10:05:45.390Z,100268.38
2017-10-19T10:08:12.867Z,100268.17
2017-10-19T10:10:40.358Z,100270.12
2017-10-19T10:13:07.863Z,100269.75
2017-10-19T10:15:35.327Z,100268.01
2017-10-19T10:18:02.794Z,100267.72
2017-10-19T10:20:30.287Z,100276.94
2017-10-19T10:22:57.766Z,100266.89
2017-10-19T10:25:25.314Z,100263.41
2017-10-19T10:27:52.810Z,100266.06
2017-10-19T10:30:20.309Z,100267.94
2017-10-19T10:32:47.885Z,100255.36
2017-10-19T10:35:15.386Z,100261.98
2017-10-19T10:37:42.853Z,100260.43
2017-10-19T10:40:10.466Z,100251.54
2017-10-19T10:42:37.928Z,100249.38
2017-10-19T10:45:05.481Z,100242.59
2017-10-19T10:47:32.971Z,100247.34
2017-10-19T10:50:00.432Z,100246.33
2017-10-19T10:52:27.940Z,100237.44
2017-10-19T10:54:55.537Z,100236.03
2017-10-19T10:57:23.025Z,100233.16
2017-10-19T10:59:50.500Z,100234.92
2017-10-19T11:02:18.001Z,100231.05
2017-10-19T11:04:45.530Z,100220.53
2017-10-19T11:07:13.098Z,100219.66
2017-10-19T11:09:40.563Z,100213.34
2017-10-19T11:12:08.041Z,100215.25
2017-10-19T11:14:35.570Z,100212.39
2017-10-19T11:17:03.174Z,100197.12
2017-10-19T11:19:30.661Z,100186.48
2017-10-19T11:21:58.388Z,100187.62
2017-10-19T11:24:25.930Z,100189.95
2017-10-19T11:26:53.391Z,100182.60
2017-10-19T11:29:20.922Z,100178.39
2017-10-19T11:31:48.391Z,100168.44
2017-10-19T11:34:15.876Z,100166.84
2017-10-19T11:36:43.393Z,100159.18
2017-10-19T11:39:10.979Z,100151.31
2017-10-19T11:41:38.478Z,100148.48
2017-10-19T11:44:05.971Z,100142.92
2017-10-19T11:46:33.553Z,100137.91
2017-10-19T11:49:01.025Z,100128.94
2017-10-19T11:51:28.522Z,100135.57
2017-10-19T11:53:56.009Z,100125.41
2017-10-19T11:56:23.491Z,100117.52
2017-10-19T11:58:50.989Z,100124.11
2017-10-19T12:01:18.472Z,100112.97
2017-10-19T12:03:45.989Z,100111.19
2017-10-19T12:06:13.490Z,100107.63
2017-10-19T12:08:41.061Z,100102.78
2017-10-19T12:11:08.557Z,100102.06
2017-10-19T12:13:36.066Z,100100.45
2017-10-19T12:16:03.519Z,100098.31
2017-10-19T12:18:30.996Z,100091.75
2017-10-19T12:20:58.458Z,100088.59
2017-10-19T12:23:25.953Z,100083.41
2017-10-19T12:25:53.455Z,100079.99
2017-10-19T12:28:20.966Z,100077.55
2017-10-19T12:30:48.438Z,100072.62
2017-10-19T12:33:15.950Z,100070.91
2017-10-19T12:35:43.422Z,100063.19
2017-10-19T12:38:10.917Z,100063.55
2017-10-19T12:40:38.398Z,100061.19
2017-10-19T12:43:05.861Z,100057.34
2017-10-19T12:45:33.342Z,100052.06
2017-10-19T12:48:00.810Z,100046.03
2017-10-19T12:50:28.302Z,100043.41
2017-10-19T12:52:55.802Z,100040.86
2017-10-19T12:55:23.278Z,100039.24
2017-10-19T12:57:50.790Z,100042.41
2017-10-19T13:00:18.267Z,100040.95
2017-10-19T13:02:45.733Z,100038.75
2017-10-19T13:05:13.231Z,100035.57
2017-10-19T13:07:40.701Z,100037.73
2017-10-19T13:10:08.271Z,100033.77
2017-10-19T13:12:35.824Z,100029.91
2017-10-19T13:15:03.542Z,100028.19
2017-10-19T13:17:31.066Z,100031.22
2017-10-19T13:19:58.535Z,100025.95
2017-10-19T13:22:26.065Z,100020.87
2017-10-19T13:24:53.553Z,100027.50
2017-10-19T13:27:21.046Z,100023.57
2017-10-19T13:29:48.560Z,100022.23
2017-10-19T13:32:16.067Z,100019.41
2017-10-19T13:34:43.550Z,100015.68
2017-10-19T13:37:11.131Z,100016.50
2017-10-19T13:39:38.616Z,100019.27
2017-10-19T13:42:06.082Z,100018.45
2017-10-19T13:44:33.578Z,100018.12
2017-10-19T13:47:01.150Z,100021.58
2017-10-19T13:49:28.640Z,100013.05
2017-10-19T13:51:56.162Z,100009.00
2017-10-19T13:54:23.724Z,100000.29
2017-10-19T13:56:51.220Z,99996.62
2017-10-19T13:59:18.781Z,99996.77
2017-10-19T14:01:46.303Z,100003.84
2017-10-19T14:04:13.805Z,100001.91
2017-10-19T14:06:41.318Z,100004.91
2017-10-19T14:09:08.874Z,100002.55
2017-10-19T14:11:36.353Z,99997.48
2017-10-19T14:14:03.827Z,100001.91
2017-10-19T14:16:31.313Z,99994.83
2017-10-19T14:18:58.768Z,100001.39
2017-10-19T14:21:26.351Z,99997.63
2017-10-19T14:23:53.903Z,99995.68
2017-10-19T14:26:21.392Z,100001.97
2017-10-19T14:28:48.864Z,99998.03
2017-10-19T14:31:16.395Z,99993.06
2017-10-19T14:33:43.857Z,99989.67
2017-10-19T14:36:11.317Z,99994.22
2017-10-19T14:38:38.813Z,99995.82
2017-10-19T14:41:06.293Z,99991.45
2017-10-19T14:43:33.771Z,99989.73
2017-10-19T14:46:01.213Z,99989.11
2017-10-19T14:48:28.698Z,99987.55
2017-10-19T14:50:56.144Z,99984.78
2017-10-19T14:53:23.636Z,99979.76
2017-10-19T14:55:51.083Z,99982.27
2017-10-19T14:58:18.609Z,99981.03
2017-10-19T15:00:46.055Z,99973.85
2017-10-19T15:03:15.030Z,99970.58
2017-10-19T15:05:42.488Z,99974.20
2017-10-19T15:08:10.079Z,99975.12
2017-10-19T15:10:37.640Z,99976.02
2017-10-19T15:13:05.126Z,99972.98
2017-10-19T15:15:32.656Z,99978.33
2017-10-19T15:18:00.118Z,99968.00
2017-10-19T15:20:27.599Z,99968.88
2017-10-19T15:22:55.126Z,99969.35
2017-10-19T15:25:22.683Z,99970.80
2017-10-19T15:27:50.145Z,99966.74
2017-10-19T15:30:17.620Z,99974.12
2017-10-19T15:32:45.098Z,99975.70
2017-10-19T15:35:12.577Z,99972.91
2017-10-19T15:37:40.062Z,99970.24
2017-10-19T15:40:07.553Z,99970.91
2017-10-19T15:42:35.080Z,99974.58
2017-10-19T15:45:02.557Z,99978.52
2017-10-19T15:47:30.042Z,99970.36
2017-10-19T15:49:57.539Z,99963.08
2017-10-19T15:52:24.987Z,99966.77
2017-10-19T15:54:52.567Z,99964.05
2017-10-19T15:57:20.148Z,99961.73
2017-10-19T15:59:47.689Z,99969.09
2017-10-19T16:02:15.246Z,99965.11
2017-10-19T16:04:42.829Z,99965.14
2017-10-19T16:07:10.299Z,99971.51
2017-10-19T16:09:37.829Z,99972.64
2017-10-19T16:12:05.271Z,99981.75
2017-10-19T16:14:32.814Z,99979.91
2017-10-19T16:17:00.285Z,99989.61
2017-10-19T16:19:27.817Z,99988.91
2017-10-19T16:21:55.277Z,99982.08
2017-10-19T16:24:22.864Z,99981.59
2017-10-19T16:26:50.317Z,99977.34
2017-10-19T16:29:17.799Z,99975.81
2017-10-19T16:31:45.281Z,99976.87
2017-10-19T16:34:13.002Z,99972.14
2017-10-19T16:36:40.554Z,99981.95
2017-10-19T16:39:08.021Z,99976.02
2017-10-19T16:41:35.497Z,99983.31
2017-10-19T16:44:02.963Z,99980.08
2017-10-19T16:46:30.436Z,99984.05
2017-10-19T16:48:57.906Z,99994.58
2017-10-19T16:51:25.376Z,99995.63
2017-10-19T16:53:52.837Z,99998.27
2017-10-19T16:56:20.341Z,100002.52
2017-10-19T16:58:47.847Z,100001.56
2017-10-19T17:01:15.374Z,99996.69
2017-10-19T17:03:42.843Z,99998.48
2017-10-19T17:06:10.329Z,100002.98
2017-10-19T17:08:37.799Z,100005.11
2017-10-19T17:11:05.292Z,100011.81
2017-10-19T17:13:32.753Z,100009.23
2017-10-19T17:16:00.265Z,100019.77
2017-10-19T17:18:27.749Z,100016.94
2017-10-19T17:20:55.236Z,100020.48
2017-10-19T17:23:22.741Z,100025.38
2017-10-19T17:25:50.249Z,100023.25
2017-10-19T17:28:17.757Z,100021.41
2017-10-19T17:30:45.255Z,100017.17
2017-10-19T17:33:12.745Z,100016.50
2017-10-19T17:35:40.238Z,100016.73
2017-10-19T17:38:07.789Z,100013.75
2017-10-19T17:40:35.351Z,100012.36
2017-10-19T17:43:02.822Z,100012.77
2017-10-19T17:45:30.342Z,100016.31
2017-10-19T17:47:57.810Z,100024.98
2017-10-19T17:50:25.302Z,100034.58
2017-10-19T17:52:52.850Z,100036.59
2017-10-19T17:55:20.358Z,100034.38
2017-10-19T17:57:47.853Z,100030.08
2017-10-19T18:00:15.307Z,100029.40
2017-10-19T18:02:42.809Z,100032.79
2017-10-19T18:05:10.279Z,100024.79
2017-10-19T18:07:37.769Z,100027.78
2017-10-19T18:10:05.241Z,100031.16
2017-10-19T18:12:32.735Z,100028.00
2017-10-19T18:15:00.240Z,100035.12
2017-10-19T18:17:27.733Z,100024.52
2017-10-19T18:19:55.210Z,100024.05
2017-10-19T18:22:22.734Z,100023.87
2017-10-19T18:24:50.293Z,100022.08
2017-10-19T18:27:17.786Z,100022.94
2017-10-19T18:29:45.282Z,100027.34
2017-10-19T18:32:12.854Z,100028.20
2017-10-19T18:34:40.415Z,100030.53
2017-10-19T18:37:07.959Z,100027.52
2017-10-19T18:39:35.425Z,100026.98
2017-10-19T18:42:02.948Z,100032.55
2017-10-19T18:44:30.430Z,100032.88
2017-10-19T18:46:57.904Z,100038.22
2017-10-19T18:49:25.382Z,100044.27
2017-10-19T18:51:52.870Z,100044.31
2017-10-19T18:54:20.357Z,100048.88
2017-10-19T18:56:47.933Z,100053.05
2017-10-19T18:59:15.496Z,100039.63
2017-10-19T19:01:43.056Z,100042.25
2017-10-19T19:04:10.522Z,100040.50
2017-10-19T19:06:38.095Z,100034.91
2017-10-19T19:09:05.615Z,100046.22
2017-10-19T19:11:33.101Z,100044.94
2017-10-19T19:14:00.597Z,100040.53
2017-10-19T19:16:28.206Z,100039.66
2017-10-19T19:18:55.687Z,100048.30
2017-10-19T19:21:23.157Z,100051.11
2017-10-19T19:23:50.635Z,100042.30
2017-10-19T19:26:18.101Z,100050.45
2017-10-19T19:28:45.685Z,100051.55
2017-10-19T19:31:13.233Z,100047.03
2017-10-19T19:33:40.742Z,100040.61
2017-10-19T19:36:08.215Z,100050.59
2017-10-19T19:38:35.711Z,100047.13
2017-10-19T19:41:03.190Z,100051.31
2017-10-19T19:43:30.690Z,100051.86
2017-10-19T19:45:58.180Z,100055.23
2017-10-19T19:48:25.663Z,100056.74
2017-10-19T19:50:53.212Z,100058.64
2017-10-19T19:53:20.701Z,100057.48
2017-10-19T19:55:48.161Z,100053.67
2017-10-19T19:58:15.677Z,100053.66
2017-10-19T20:00:43.147Z,100056.27
2017-10-19T20:03:10.633Z,100055.86
2017-10-19T20:05:38.190Z,100055.67
2017-10-19T20:08:05.690Z,100059.36
2017-10-19T20:10:33.190Z,100064.73
2017-10-19T20:13:00.688Z,100068.29
2017-10-19T20:15:28.195Z,100065.78
2017-10-19T20:17:55.726Z,100061.81
2017-10-19T20:20:23.214Z,100063.40
2017-10-19T20:22:50.712Z,100060.20
2017-10-19T20:25:18.197Z,100060.05
2017-10-19T20:27:45.703Z,100059.89
2017-10-19T20:30:13.225Z,100067.32
2017-10-19T20:32:40.713Z,100058.59
2017-10-19T20:35:08.244Z,100063.04
2017-10-19T20:37:35.802Z,100061.14
2017-10-19T20:40:03.365Z,100065.80
2017-10-19T20:42:30.871Z,100059.42
2017-10-19T20:44:58.385Z,100061.36
2017-10-19T20:47:25.870Z,100062.89
2017-10-19T20:49:53.351Z,100061.67
2017-10-19T20:52:20.816Z,100065.20
2017-10-19T20:54:48.317Z,100067.37
2017-10-19T20:57:15.784Z,100068.27
2017-10-19T20:59:43.305Z,100063.30
2017-10-19T21:02:10.886Z,100063.14
2017-10-19T21:04:38.427Z,100061.88
2017-10-19T21:07:05.893Z,100058.61
2017-10-19T21:09:33.379Z,100054.80
2017-10-19T21:12:00.844Z,100059.09
2017-10-19T21:14:28.356Z,100057.87
2017-10-19T21:16:55.854Z,100058.66
2017-10-19T21:19:23.332Z,100067.45
2017-10-19T21:21:50.806Z,100063.00
2017-10-19T21:24:18.317Z,100061.70
2017-10-19T21:26:45.841Z,100059.73
2017-10-19T21:29:13.429Z,100065.78
2017-10-19T21:31:40.976Z,100055.11
2017-10-19T21:34:08.529Z,100057.63
2017-10-19T21:36:35.993Z,100063.58
2017-10-19T21:39:03.493Z,100054.48
2017-10-19T21:41:31.002Z,100052.12
2017-10-19T21:43:58.510Z,100048.42
2017-10-19T21:46:26.015Z,100049.73
2017-10-19T21:48:53.569Z,100047.36
2017-10-19T21:51:21.042Z,100051.05
2017-10-19T21:53:48.537Z,100048.83
2017-10-19T21:56:16.049Z,100044.66
2017-10-19T21:58:43.523Z,100046.02
2017-10-19T22:01:10.979Z,100047.11
2017-10-19T22:03:38.535Z,100041.77
2017-10-19T22:06:06.064Z,100042.46
2017-10-19T22:08:33.622Z,100050.75
2017-10-19T22:11:01.195Z,100047.42
2017-10-19T22:13:28.755Z,100048.38
2017-10-19T22:15:56.221Z,100045.13
2017-10-19T22:18:23.714Z,100050.69
2017-10-19T22:20:51.193Z,100049.22
2017-10-19T22:23:18.709Z,100050.56
2017-10-19T22:25:46.228Z,100045.86
2017-10-19T22:28:13.698Z,100045.58
2017-10-19T22:30:41.255Z,100044.95
2017-10-19T22:33:08.724Z,100045.39
2017-10-19T22:35:36.266Z,100048.14
2017-10-19T22:38:03.732Z,100050.94
2017-10-19T22:40:31.230Z,100050.83
2017-10-19T22:42:58.741Z,100053.14
2017-10-19T22:45:26.219Z,100048.20
2017-10-19T22:47:53.753Z,100053.21
2017-10-19T22:50:21.254Z,100055.52
2017-10-19T22:52:48.764Z,100059.27
2017-10-19T22:55:16.247Z,100053.13
2017-10-19T22:57:43.724Z,100053.57
2017-10-19T23:00:11.199Z,100056.08
2017-10-19T23:02:38.665Z,100058.45
2017-10-19T23:05:06.263Z,100055.72
2017-10-19T23:07:33.729Z,100060.82
2017-10-19T23:10:01.222Z,100052.97
2017-10-19T23:12:28.689Z,100059.22
2017-10-19T23:14:56.194Z,100057.97
2017-10-19T23:17:23.748Z,100059.70
2017-10-19T23:19:51.253Z,100062.41
2017-10-19T23:22:18.755Z,100065.98
2017-10-19T23:24:46.270Z,100065.86
2017-10-19T23:27:13.761Z,100065.47
2017-10-19T23:29:41.337Z,100071.53
2017-10-19T23:32:08.813Z,100066.59
2017-10-19T23:34:36.291Z,100066.95
2017-10-19T23:37:03.807Z,100061.31
2017-10-19T23:39:31.283Z,100059.80
2017-10-19T23:41:58.875Z,100055.36
2017-10-19T23:44:26.347Z,100064.00
2017-10-19T23:46:53.806Z,100064.88
2017-10-19T23:49:21.284Z,100082.83
2017-10-19T23:51:48.853Z,100084.05
2017-10-19T23:54:16.410Z,100085.96
2017-10-19T23:56:43.978Z,100088.67
2017-10-19T23:59:11.543Z,100093.19
